createdAt,value
2023-03-25T00:01:26.090Z,9.27
2023-03-25T00:02:58.990Z,9.11
2023-03-25T00:04:30.714Z,8.88
2023-03-25T00:06:02.436Z,8.99
2023-03-25T00:07:34.027Z,8.83
2023-03-25T00:09:05.658Z,8.86
2023-03-25T00:10:37.263Z,8.85
2023-03-25T00:12:09.259Z,8.82
2023-03-25T00:13:42.139Z,8.72
2023-03-25T00:15:16.143Z,8.76
2023-03-25T00:16:48.584Z,8.58
2023-03-25T00:18:22.744Z,8.56
2023-03-25T00:19:55.564Z,8.61
2023-03-25T00:21:27.167Z,8.56
2023-03-25T00:22:58.814Z,8.55
2023-03-25T00:24:30.681Z,8.49
2023-03-25T00:26:03.236Z,8.42
2023-03-25T00:27:35.401Z,8.51
2023-03-25T00:29:07.019Z,8.52
2023-03-25T00:30:39.554Z,8.43
2023-03-25T00:32:12.595Z,8.37
2023-03-25T00:33:44.250Z,8.32
2023-03-25T00:35:19.739Z,8.37
2023-03-25T00:36:51.772Z,8.35
2023-03-25T00:38:24.530Z,8.31
2023-03-25T00:39:56.468Z,8.22
2023-03-25T00:41:28.257Z,8.23
2023-03-25T00:43:00.523Z,8.23
2023-03-25T00:44:32.546Z,8.27
2023-03-25T00:46:04.537Z,8.22
2023-03-25T00:47:36.218Z,8.22
2023-03-25T00:49:09.656Z,8.18
2023-03-25T00:50:41.914Z,8.18
2023-03-25T00:52:14.255Z,8.18
2023-03-25T00:53:46.296Z,8.10
2023-03-25T00:55:18.518Z,8.06
2023-03-25T00:56:52.537Z,8.03
2023-03-25T00:58:24.325Z,7.92
2023-03-25T00:59:56.203Z,7.87
2023-03-25T01:01:29.251Z,7.75
2023-03-25T01:03:04.075Z,7.74
2023-03-25T01:04:39.460Z,7.73
2023-03-25T01:06:14.747Z,7.79
2023-03-25T01:07:49.448Z,7.65
2023-03-25T01:09:21.311Z,7.66
2023-03-25T01:10:54.488Z,7.70
2023-03-25T01:12:27.041Z,7.71
2023-03-25T01:14:01.530Z,7.64
2023-03-25T01:15:33.119Z,7.60
2023-03-25T01:17:05.259Z,7.55
2023-03-25T01:18:38.708Z,7.58
2023-03-25T01:20:10.684Z,7.61
2023-03-25T01:21:42.479Z,7.55
2023-03-25T01:23:14.230Z,7.44
2023-03-25T01:24:45.888Z,7.61
2023-03-25T01:26:18.513Z,7.70
2023-03-25T01:27:50.192Z,7.76
2023-03-25T01:29:22.339Z,7.78
2023-03-25T01:31:01.524Z,7.82
2023-03-25T01:32:33.170Z,7.85
2023-03-25T01:34:06.307Z,7.93
2023-03-25T01:35:37.973Z,7.92
2023-03-25T01:37:10.027Z,7.95
2023-03-25T01:38:42.278Z,7.92
2023-03-25T01:40:19.489Z,7.93
2023-03-25T01:41:51.834Z,7.96
2023-03-25T01:43:24.057Z,7.96
2023-03-25T01:45:22.828Z,7.93
2023-03-25T01:46:56.260Z,7.93
2023-03-25T01:48:40.801Z,7.98
2023-03-25T01:50:15.044Z,8.06
2023-03-25T01:51:50.252Z,8.07
2023-03-25T01:53:22.095Z,8.04
2023-03-25T01:54:57.115Z,7.98
2023-03-25T01:56:33.830Z,7.95
2023-03-25T01:58:13.855Z,7.90
2023-03-25T01:59:46.362Z,7.90
2023-03-25T02:01:21.804Z,7.95
2023-03-25T02:02:58.894Z,7.92
2023-03-25T02:04:44.116Z,7.85
2023-03-25T02:06:57.265Z,7.87
2023-03-25T02:08:32.710Z,7.85
2023-03-25T02:10:07.740Z,7.82
2023-03-25T02:11:39.735Z,7.75
2023-03-25T02:13:11.528Z,7.68
2023-03-25T02:14:43.115Z,7.71
2023-03-25T02:16:33.135Z,7.57
2023-03-25T02:18:04.758Z,7.54
2023-03-25T02:20:24.012Z,7.54
2023-03-25T02:22:17.271Z,7.48
2023-03-25T02:23:58.114Z,7.44
2023-03-25T02:26:12.555Z,7.43
2023-03-25T02:27:49.857Z,7.42
2023-03-25T02:29:24.137Z,7.49
2023-03-25T02:31:16.513Z,7.47
2023-03-25T02:33:14.339Z,7.49
2023-03-25T02:35:04.176Z,7.51
2023-03-25T02:36:56.296Z,7.51
2023-03-25T02:38:43.256Z,7.48
2023-03-25T02:40:36.534Z,7.51
2023-03-25T02:42:08.072Z,7.53
2023-03-25T02:43:55.849Z,7.60
2023-03-25T02:45:34.727Z,7.59
2023-03-25T02:47:14.391Z,7.56
2023-03-25T02:49:00.765Z,7.50
2023-03-25T02:50:43.701Z,7.40
2023-03-25T02:52:27.999Z,7.41
2023-03-25T02:54:21.228Z,7.35
2023-03-25T02:55:59.265Z,7.35
2023-03-25T02:57:34.854Z,7.27
2023-03-25T02:59:09.798Z,7.28
2023-03-25T03:00:43.108Z,7.23
2023-03-25T03:02:15.790Z,7.16
2023-03-25T03:03:47.533Z,7.20
2023-03-25T03:05:24.240Z,7.20
2023-03-25T03:06:57.672Z,7.00
2023-03-25T03:08:31.873Z,6.92
2023-03-25T03:10:22.800Z,6.93
2023-03-25T03:12:04.574Z,6.97
2023-03-25T03:13:41.784Z,6.88
2023-03-25T03:15:32.033Z,6.83
2023-03-25T03:17:26.788Z,6.78
2023-03-25T03:19:15.337Z,6.69
2023-03-25T03:21:06.968Z,6.64
2023-03-25T03:22:38.566Z,6.69
2023-03-25T03:24:10.208Z,6.64
2023-03-25T03:25:52.219Z,6.65
2023-03-25T03:27:56.523Z,6.76
2023-03-25T03:29:33.905Z,6.63
2023-03-25T03:31:12.144Z,6.63
2023-03-25T03:32:49.802Z,6.58
2023-03-25T03:34:44.644Z,6.56
2023-03-25T03:36:27.121Z,6.76
2023-03-25T03:38:03.697Z,6.63
2023-03-25T03:39:37.559Z,6.76
2023-03-25T03:41:13.613Z,6.77
2023-03-25T03:42:48.403Z,6.80
2023-03-25T03:44:24.874Z,6.66
2023-03-25T03:46:02.351Z,6.72
2023-03-25T03:47:39.914Z,6.64
2023-03-25T03:49:17.837Z,6.47
2023-03-25T03:51:00.677Z,6.45
2023-03-25T03:52:38.465Z,6.49
2023-03-25T03:54:43.144Z,6.44
2023-03-25T03:56:25.965Z,6.42
2023-03-25T03:58:05.624Z,6.43
2023-03-25T03:59:52.348Z,6.49
2023-03-25T04:01:38.058Z,6.64
2023-03-25T04:03:14.875Z,6.68
2023-03-25T04:04:46.628Z,6.59
2023-03-25T04:06:35.426Z,6.63
2023-03-25T04:08:23.924Z,6.68
2023-03-25T04:10:21.864Z,6.72
2023-03-25T04:11:59.163Z,6.69
2023-03-25T04:13:37.000Z,6.71
2023-03-25T04:15:09.159Z,6.78
2023-03-25T04:16:45.604Z,6.75
2023-03-25T04:18:17.802Z,6.78
2023-03-25T04:19:53.543Z,6.84
2023-03-25T04:21:25.725Z,6.80
2023-03-25T04:22:57.335Z,6.83
2023-03-25T04:24:32.795Z,6.76
2023-03-25T04:26:04.524Z,6.81
2023-03-25T04:27:37.859Z,6.88
2023-03-25T04:29:10.053Z,6.77
2023-03-25T04:30:41.605Z,6.77
2023-03-25T04:32:13.889Z,6.73
2023-03-25T04:33:46.590Z,6.67
2023-03-25T04:35:19.335Z,6.71
2023-03-25T04:36:51.021Z,6.72
2023-03-25T04:38:22.609Z,6.55
2023-03-25T04:39:56.136Z,6.62
2023-03-25T04:41:28.740Z,6.53
2023-03-25T04:43:00.522Z,6.57
2023-03-25T04:44:39.028Z,6.62
2023-03-25T04:46:15.845Z,6.66
2023-03-25T04:47:49.592Z,6.58
2023-03-25T04:49:22.713Z,6.59
2023-03-25T04:50:55.989Z,6.55
2023-03-25T04:52:27.682Z,6.54
2023-03-25T04:53:59.411Z,6.53
2023-03-25T04:55:31.486Z,6.64
2023-03-25T04:57:03.172Z,6.50
2023-03-25T04:58:36.873Z,6.56
2023-03-25T05:00:09.190Z,6.57
2023-03-25T05:01:45.853Z,6.50
2023-03-25T05:03:25.860Z,6.36
2023-03-25T05:05:02.128Z,6.44
2023-03-25T05:06:35.325Z,6.44
2023-03-25T05:08:07.762Z,6.47
2023-03-25T05:09:39.545Z,6.62
2023-03-25T05:11:11.116Z,6.64
2023-03-25T05:12:42.796Z,6.57
2023-03-25T05:14:16.768Z,6.69
2023-03-25T05:15:48.475Z,6.65
2023-03-25T05:17:20.257Z,6.70
2023-03-25T05:18:51.941Z,6.79
2023-03-25T05:20:24.493Z,6.81
2023-03-25T05:21:56.286Z,6.90
2023-03-25T05:23:28.698Z,6.97
2023-03-25T05:25:02.268Z,6.97
2023-03-25T05:26:39.699Z,6.95
2023-03-25T05:28:14.048Z,6.86
2023-03-25T05:29:48.662Z,6.79
2023-03-25T05:31:20.310Z,6.97
2023-03-25T05:32:56.681Z,6.92
2023-03-25T05:34:29.943Z,7.07
2023-03-25T05:36:01.580Z,7.03
2023-03-25T05:37:33.159Z,7.12
2023-03-25T05:39:05.658Z,7.07
2023-03-25T05:40:37.947Z,7.11
2023-03-25T05:42:10.821Z,7.08
2023-03-25T05:43:47.440Z,7.10
2023-03-25T05:45:19.388Z,7.18
2023-03-25T05:46:50.918Z,7.18
2023-03-25T05:48:22.441Z,7.28
2023-03-25T05:49:54.264Z,7.25
2023-03-25T05:51:26.402Z,7.25
2023-03-25T05:52:59.898Z,7.23
2023-03-25T05:54:31.585Z,7.24
2023-03-25T05:56:03.874Z,7.28
2023-03-25T05:57:36.319Z,7.26
2023-03-25T05:59:08.959Z,7.27
2023-03-25T06:00:40.489Z,7.27
2023-03-25T06:02:14.781Z,7.32
2023-03-25T06:03:46.744Z,7.35
2023-03-25T06:05:23.508Z,7.34
2023-03-25T06:06:55.693Z,7.43
2023-03-25T06:08:29.794Z,7.40
2023-03-25T06:10:01.463Z,7.38
2023-03-25T06:11:38.320Z,7.35
2023-03-25T06:13:10.303Z,7.37
2023-03-25T06:14:43.053Z,7.34
2023-03-25T06:16:18.455Z,7.37
2023-03-25T06:17:50.231Z,7.40
2023-03-25T06:19:26.480Z,7.43
2023-03-25T06:20:58.546Z,7.39
2023-03-25T06:22:30.609Z,7.61
2023-03-25T06:24:02.547Z,7.86
2023-03-25T06:25:34.604Z,7.81
2023-03-25T06:27:14.291Z,7.70
2023-03-25T06:28:46.310Z,7.80
2023-03-25T06:30:21.032Z,8.09
2023-03-25T06:31:52.629Z,8.31
2023-03-25T06:33:42.425Z,8.37
2023-03-25T06:35:19.517Z,8.58
2023-03-25T06:36:54.033Z,8.54
2023-03-25T06:38:26.300Z,8.46
2023-03-25T06:40:15.356Z,8.34
2023-03-25T06:41:47.136Z,8.42
2023-03-25T06:43:28.257Z,8.42
2023-03-25T06:45:18.254Z,8.53
2023-03-25T06:47:02.505Z,8.68
2023-03-25T06:48:36.962Z,8.78
2023-03-25T06:50:08.909Z,9.01
2023-03-25T06:51:40.474Z,9.19
2023-03-25T06:53:12.102Z,9.32
2023-03-25T06:54:44.021Z,9.26
2023-03-25T06:56:18.168Z,9.42
2023-03-25T06:57:50.256Z,9.53
2023-03-25T06:59:21.773Z,9.82
2023-03-25T07:00:54.857Z,9.71
2023-03-25T07:02:26.502Z,9.42
2023-03-25T07:03:58.100Z,9.48
2023-03-25T07:05:29.885Z,9.58
2023-03-25T07:07:01.492Z,9.56
2023-03-25T07:08:33.432Z,9.46
2023-03-25T07:10:05.364Z,9.37
2023-03-25T07:11:37.002Z,9.20
2023-03-25T07:13:09.726Z,9.58
2023-03-25T07:14:41.347Z,9.63
2023-03-25T07:16:14.374Z,10.03
2023-03-25T07:17:49.308Z,10.57
2023-03-25T07:19:21.018Z,11.72
2023-03-25T07:20:53.155Z,11.06
2023-03-25T07:22:24.708Z,10.93
2023-03-25T07:23:56.336Z,11.37
2023-03-25T07:25:27.959Z,11.99
2023-03-25T07:26:59.576Z,12.59
2023-03-25T07:28:32.957Z,14.60
2023-03-25T07:30:05.433Z,16.40
2023-03-25T07:31:37.158Z,18.34
2023-03-25T07:33:08.892Z,20.17
2023-03-25T07:34:41.123Z,19.58
2023-03-25T07:36:14.303Z,18.63
2023-03-25T07:37:46.174Z,15.38
2023-03-25T07:39:18.592Z,15.74
2023-03-25T07:40:50.571Z,15.33
2023-03-25T07:42:22.212Z,16.24
2023-03-25T07:44:18.212Z,16.85
2023-03-25T07:45:50.012Z,16.24
2023-03-25T07:47:21.652Z,15.45
2023-03-25T07:48:53.239Z,14.93
2023-03-25T07:50:26.064Z,14.30
2023-03-25T07:51:57.907Z,15.74
2023-03-25T07:53:29.579Z,16.87
2023-03-25T07:55:01.230Z,15.55
2023-03-25T07:56:33.311Z,14.28
2023-03-25T07:58:05.269Z,13.58
2023-03-25T07:59:36.866Z,12.95
2023-03-25T08:01:08.783Z,12.33
2023-03-25T08:02:41.793Z,11.89
2023-03-25T08:04:13.864Z,11.10
2023-03-25T08:05:47.173Z,10.95
2023-03-25T08:07:19.183Z,11.04
2023-03-25T08:08:50.832Z,11.01
2023-03-25T08:10:22.476Z,11.15
2023-03-25T08:11:54.045Z,11.38
2023-03-25T08:13:26.139Z,11.18
2023-03-25T08:14:57.967Z,10.98
2023-03-25T08:16:29.761Z,11.07
2023-03-25T08:18:03.095Z,11.10
2023-03-25T08:19:34.830Z,14.56
2023-03-25T08:21:06.522Z,15.88
2023-03-25T08:22:38.203Z,13.41
2023-03-25T08:24:11.582Z,13.29
2023-03-25T08:25:43.198Z,12.25
2023-03-25T08:27:16.696Z,11.75
2023-03-25T08:28:48.589Z,11.18
2023-03-25T08:30:20.362Z,10.92
2023-03-25T08:31:52.312Z,10.93
2023-03-25T08:33:34.353Z,10.75
2023-03-25T08:35:07.546Z,10.82
2023-03-25T08:36:39.734Z,10.75
2023-03-25T08:38:12.236Z,10.56
2023-03-25T08:39:44.997Z,10.59
2023-03-25T08:41:16.671Z,10.98
2023-03-25T08:42:48.241Z,11.28
2023-03-25T08:44:19.814Z,11.51
2023-03-25T08:45:51.656Z,11.66
2023-03-25T08:47:23.699Z,11.22
2023-03-25T08:48:56.097Z,10.96
2023-03-25T08:50:28.753Z,10.88
2023-03-25T08:52:01.837Z,10.76
2023-03-25T08:53:33.590Z,12.33
2023-03-25T08:55:08.721Z,11.93
2023-03-25T08:56:42.083Z,12.06
2023-03-25T08:58:13.826Z,11.34
2023-03-25T08:59:45.461Z,11.12
2023-03-25T09:01:17.070Z,11.79
2023-03-25T09:02:48.689Z,14.20
2023-03-25T09:04:20.277Z,13.89
2023-03-25T09:05:52.169Z,13.40
2023-03-25T09:07:24.098Z,12.66
2023-03-25T09:08:56.178Z,12.18
2023-03-25T09:10:27.814Z,12.28
2023-03-25T09:11:59.667Z,14.89
2023-03-25T09:13:31.530Z,14.38
2023-03-25T09:15:03.370Z,13.13
2023-03-25T09:16:35.208Z,12.43
2023-03-25T09:18:07.048Z,12.11
2023-03-25T09:19:38.711Z,12.45
2023-03-25T09:21:10.551Z,11.97
2023-03-25T09:22:42.282Z,11.77
2023-03-25T09:24:13.963Z,11.58
2023-03-25T09:25:46.255Z,11.42
2023-03-25T09:27:17.920Z,11.42
2023-03-25T09:28:49.555Z,11.60
2023-03-25T09:30:21.424Z,11.52
2023-03-25T09:31:53.119Z,14.53
2023-03-25T09:33:27.483Z,12.49
2023-03-25T09:34:59.210Z,11.93
2023-03-25T09:36:32.196Z,13.56
2023-03-25T09:38:04.342Z,14.16
2023-03-25T09:39:36.240Z,14.88
2023-03-25T09:41:54.059Z,19.60
2023-03-25T09:43:40.919Z,20.04
2023-03-25T09:45:34.142Z,17.13
2023-03-25T09:47:10.741Z,14.88
2023-03-25T09:48:48.582Z,13.65
2023-03-25T09:50:22.765Z,13.34
2023-03-25T09:51:56.048Z,12.67
2023-03-25T09:53:43.609Z,12.36
2023-03-25T09:55:22.182Z,12.21
2023-03-25T09:56:59.080Z,12.30
2023-03-25T09:58:50.503Z,11.95
2023-03-25T10:00:26.209Z,11.80
2023-03-25T10:02:27.467Z,11.74
2023-03-25T10:04:17.110Z,11.67
2023-03-25T10:05:51.211Z,11.53
2023-03-25T10:07:43.918Z,11.81
2023-03-25T10:09:27.479Z,12.15
2023-03-25T10:11:07.649Z,11.91
2023-03-25T10:12:52.843Z,11.64
2023-03-25T10:14:41.366Z,11.37
2023-03-25T10:16:15.635Z,11.56
2023-03-25T10:18:16.495Z,11.18
2023-03-25T10:19:58.774Z,10.92
2023-03-25T10:21:33.284Z,11.14
2023-03-25T10:23:07.850Z,12.96
2023-03-25T10:24:43.011Z,13.89
2023-03-25T10:26:30.777Z,12.24
2023-03-25T10:28:05.403Z,11.21
2023-03-25T10:29:42.728Z,10.74
2023-03-25T10:31:18.993Z,10.54
2023-03-25T10:32:57.161Z,10.75
2023-03-25T10:34:46.654Z,13.71
2023-03-25T10:36:21.531Z,14.48
2023-03-25T10:37:55.464Z,14.37
2023-03-25T10:39:34.020Z,14.69
2023-03-25T10:41:22.755Z,14.02
2023-03-25T10:43:06.482Z,13.94
2023-03-25T10:44:38.114Z,13.80
2023-03-25T10:46:18.799Z,13.12
2023-03-25T10:47:53.511Z,13.15
2023-03-25T10:49:29.778Z,13.67
2023-03-25T10:51:13.336Z,13.91
2023-03-25T10:52:46.673Z,13.55
2023-03-25T10:54:19.050Z,13.50
2023-03-25T10:55:57.710Z,13.90
2023-03-25T10:57:33.722Z,14.12
2023-03-25T10:59:17.690Z,13.69
2023-03-25T11:00:50.530Z,14.44
2023-03-25T11:02:28.124Z,14.51
2023-03-25T11:04:00.953Z,13.94
2023-03-25T11:05:34.166Z,13.39
2023-03-25T11:07:19.364Z,13.08
2023-03-25T11:09:23.485Z,12.88
2023-03-25T11:10:59.353Z,12.39
2023-03-25T11:12:42.476Z,12.49
2023-03-25T11:14:16.618Z,12.37
2023-03-25T11:15:49.873Z,12.37
2023-03-25T11:17:25.655Z,11.94
2023-03-25T11:19:01.985Z,11.68
2023-03-25T11:20:46.001Z,11.29
2023-03-25T11:22:28.460Z,11.28
2023-03-25T11:24:00.782Z,11.16
2023-03-25T11:25:39.986Z,11.27
2023-03-25T11:27:18.280Z,11.74
2023-03-25T11:28:55.953Z,11.95
2023-03-25T11:30:27.854Z,12.37
2023-03-25T11:32:14.665Z,12.25
2023-03-25T11:34:03.233Z,11.97
2023-03-25T11:35:43.319Z,11.59
2023-03-25T11:37:24.406Z,13.22
2023-03-25T11:38:58.543Z,15.46
2023-03-25T11:40:32.046Z,15.00
2023-03-25T11:42:13.804Z,13.79
2023-03-25T11:43:48.898Z,14.49
2023-03-25T11:45:24.689Z,13.47
2023-03-25T11:46:58.390Z,13.09
2023-03-25T11:48:36.800Z,13.02
2023-03-25T11:50:23.746Z,13.36
2023-03-25T11:52:02.721Z,14.19
2023-03-25T11:53:34.505Z,13.13
2023-03-25T11:55:06.916Z,13.19
2023-03-25T11:56:41.510Z,18.44
2023-03-25T11:58:19.600Z,23.43
2023-03-25T12:00:01.416Z,22.20
2023-03-25T12:01:48.464Z,17.54
2023-03-25T12:03:27.549Z,15.77
2023-03-25T12:05:02.357Z,15.41
2023-03-25T12:06:34.158Z,14.90
2023-03-25T12:08:17.579Z,14.55
2023-03-25T12:09:55.790Z,14.25
2023-03-25T12:11:32.714Z,13.97
2023-03-25T12:13:14.652Z,13.82
2023-03-25T12:15:15.625Z,13.82
2023-03-25T12:17:00.020Z,13.79
2023-03-25T12:18:53.642Z,13.87
2023-03-25T12:20:36.419Z,13.81
2023-03-25T12:22:53.395Z,13.47
2023-03-25T12:24:40.773Z,13.07
2023-03-25T12:26:12.363Z,13.09
2023-03-25T12:27:57.321Z,13.22
2023-03-25T12:29:48.689Z,13.71
2023-03-25T12:31:53.920Z,13.32
2023-03-25T12:33:50.215Z,12.88
2023-03-25T12:35:24.609Z,12.94
2023-03-25T12:37:30.625Z,12.75
2023-03-25T12:39:11.233Z,12.52
2023-03-25T12:41:10.674Z,12.64
2023-03-25T12:42:45.621Z,12.91
2023-03-25T12:44:55.253Z,12.49
2023-03-25T12:46:38.170Z,12.31
2023-03-25T12:48:24.713Z,12.44
2023-03-25T12:50:13.918Z,12.54
2023-03-25T12:51:57.353Z,12.45
2023-03-25T12:53:46.114Z,12.36
2023-03-25T12:55:35.946Z,12.31
2023-03-25T12:57:16.356Z,12.31
2023-03-25T12:59:05.562Z,12.49
2023-03-25T13:01:05.172Z,12.61
2023-03-25T13:03:12.478Z,12.69
2023-03-25T13:04:50.699Z,12.86
2023-03-25T13:06:34.998Z,13.39
2023-03-25T13:08:27.297Z,13.51
2023-03-25T13:10:04.944Z,13.79
2023-03-25T13:11:49.503Z,13.99
2023-03-25T13:13:24.299Z,13.37
2023-03-25T13:15:24.655Z,13.34
2023-03-25T13:17:04.272Z,13.07
2023-03-25T13:18:41.765Z,13.10
2023-03-25T13:20:17.369Z,13.11
2023-03-25T13:21:52.872Z,13.30
2023-03-25T13:23:27.364Z,13.19
2023-03-25T13:25:03.555Z,13.12
2023-03-25T13:26:36.153Z,13.01
2023-03-25T13:28:16.225Z,14.23
2023-03-25T13:29:54.927Z,17.06
2023-03-25T13:31:35.495Z,19.46
2023-03-25T13:33:13.824Z,20.10
2023-03-25T13:35:07.408Z,21.34
2023-03-25T13:36:43.071Z,22.25
2023-03-25T13:38:25.736Z,21.85
2023-03-25T13:40:18.644Z,22.58
2023-03-25T13:41:56.902Z,23.03
2023-03-25T13:43:50.235Z,23.02
2023-03-25T13:45:23.936Z,23.34
2023-03-25T13:47:09.214Z,22.51
2023-03-25T13:48:54.416Z,22.60
2023-03-25T13:50:30.027Z,22.19
2023-03-25T13:52:01.876Z,21.71
2023-03-25T13:53:39.531Z,19.81
2023-03-25T13:55:29.955Z,17.88
2023-03-25T13:57:24.737Z,16.89
2023-03-25T13:59:28.544Z,16.18
2023-03-25T14:01:00.561Z,15.01
2023-03-25T14:02:40.018Z,14.61
2023-03-25T14:04:42.536Z,14.55
2023-03-25T14:06:29.573Z,13.75
2023-03-25T14:08:21.420Z,13.40
2023-03-25T14:10:22.865Z,13.46
2023-03-25T14:12:08.342Z,13.77
2023-03-25T14:13:46.466Z,13.76
2023-03-25T14:15:30.174Z,13.66
2023-03-25T14:17:05.300Z,13.58
2023-03-25T14:18:43.776Z,13.21
2023-03-25T14:20:41.306Z,13.23
2023-03-25T14:22:18.107Z,13.23
2023-03-25T14:24:06.237Z,13.17
2023-03-25T14:25:41.263Z,13.09
2023-03-25T14:27:29.847Z,13.17
2023-03-25T14:29:07.796Z,13.14
2023-03-25T14:30:40.140Z,13.18
2023-03-25T14:32:18.413Z,13.07
2023-03-25T14:34:04.902Z,13.13
2023-03-25T14:35:36.681Z,13.07
2023-03-25T14:37:08.760Z,12.90
2023-03-25T14:38:54.751Z,12.79
2023-03-25T14:41:02.250Z,12.88
2023-03-25T14:42:56.361Z,12.79
2023-03-25T14:44:56.884Z,12.70
2023-03-25T14:46:35.390Z,12.76
2023-03-25T14:48:25.784Z,12.69
2023-03-25T14:50:21.762Z,12.76
2023-03-25T14:51:58.109Z,12.68
2023-03-25T14:53:29.880Z,12.84
2023-03-25T14:55:08.093Z,12.81
2023-03-25T14:56:53.163Z,12.79
2023-03-25T14:58:27.839Z,12.77
2023-03-25T15:00:09.980Z,12.70
2023-03-25T15:01:43.369Z,12.99
2023-03-25T15:03:18.657Z,13.29
2023-03-25T15:05:11.967Z,13.37
2023-03-25T15:06:44.820Z,13.35
2023-03-25T15:08:17.677Z,12.97
2023-03-25T15:09:55.983Z,13.01
2023-03-25T15:11:33.860Z,12.81
2023-03-25T15:13:09.878Z,12.74
2023-03-25T15:14:43.340Z,12.74
2023-03-25T15:16:20.090Z,12.62
2023-03-25T15:17:51.901Z,12.62
2023-03-25T15:19:23.857Z,12.51
2023-03-25T15:21:10.585Z,12.41
2023-03-25T15:22:42.537Z,12.26
2023-03-25T15:24:18.228Z,12.32
2023-03-25T15:25:54.713Z,12.25
2023-03-25T15:28:03.578Z,12.33
2023-03-25T15:29:51.248Z,12.20
2023-03-25T15:31:31.968Z,12.09
2023-03-25T15:33:30.961Z,11.93
2023-03-25T15:35:32.201Z,11.78
2023-03-25T15:37:26.382Z,11.88
2023-03-25T15:39:29.816Z,12.12
2023-03-25T15:41:08.540Z,12.17
2023-03-25T15:42:55.493Z,11.95
2023-03-25T15:44:57.383Z,11.77
2023-03-25T15:46:47.024Z,11.64
2023-03-25T15:48:34.567Z,11.52
2023-03-25T15:50:06.521Z,11.48
2023-03-25T15:51:56.705Z,11.45
2023-03-25T15:53:44.210Z,11.36
2023-03-25T15:55:31.969Z,11.27
2023-03-25T15:57:17.061Z,11.16
2023-03-25T15:59:11.929Z,11.02
2023-03-25T16:00:47.926Z,11.21
2023-03-25T16:02:44.149Z,11.65
2023-03-25T16:04:42.552Z,12.43
2023-03-25T16:06:17.426Z,12.14
2023-03-25T16:07:50.008Z,11.70
2023-03-25T16:09:28.388Z,11.54
2023-03-25T16:11:18.870Z,12.32
2023-03-25T16:12:50.635Z,12.71
2023-03-25T16:14:22.762Z,12.84
2023-03-25T16:15:57.083Z,12.99
2023-03-25T16:17:33.523Z,12.13
2023-03-25T16:19:12.024Z,11.64
2023-03-25T16:20:45.328Z,11.47
2023-03-25T16:22:32.912Z,11.15
2023-03-25T16:24:07.842Z,11.18
2023-03-25T16:25:42.033Z,11.19
2023-03-25T16:27:21.781Z,11.05
2023-03-25T16:28:53.573Z,11.11
2023-03-25T16:30:33.074Z,11.21
2023-03-25T16:32:06.031Z,11.08
2023-03-25T16:33:39.139Z,10.99
2023-03-25T16:35:41.480Z,10.97
2023-03-25T16:37:14.233Z,10.96
2023-03-25T16:38:46.033Z,11.11
2023-03-25T16:40:26.744Z,11.14
2023-03-25T16:42:08.192Z,11.17
2023-03-25T16:43:40.691Z,11.25
2023-03-25T16:45:15.884Z,11.19
2023-03-25T16:46:48.738Z,11.25
2023-03-25T16:48:30.440Z,11.13
2023-03-25T16:50:03.952Z,11.12
2023-03-25T16:51:38.986Z,11.04
2023-03-25T16:53:15.109Z,11.03
2023-03-25T16:55:12.706Z,10.91
2023-03-25T16:56:44.414Z,11.08
2023-03-25T16:58:22.903Z,10.96
2023-03-25T16:59:56.036Z,11.13
2023-03-25T17:01:32.037Z,11.05
2023-03-25T17:03:05.895Z,11.06
2023-03-25T17:04:42.185Z,10.96
2023-03-25T17:06:30.858Z,11.06
2023-03-25T17:08:07.074Z,11.00
2023-03-25T17:09:43.067Z,11.03
2023-03-25T17:11:15.492Z,11.07
2023-03-25T17:12:58.211Z,11.02
2023-03-25T17:14:33.676Z,11.00
2023-03-25T17:16:07.999Z,10.94
2023-03-25T17:17:47.033Z,10.86
2023-03-25T17:19:21.289Z,10.77
2023-03-25T17:20:57.825Z,10.78
2023-03-25T17:22:33.891Z,10.82
2023-03-25T17:24:08.125Z,10.72
2023-03-25T17:25:53.568Z,10.76
2023-03-25T17:27:39.190Z,10.70
2023-03-25T17:29:12.665Z,10.57
2023-03-25T17:30:45.809Z,10.42
2023-03-25T17:32:18.351Z,10.42
2023-03-25T17:33:52.511Z,10.40
2023-03-25T17:35:31.570Z,10.42
2023-03-25T17:37:04.038Z,10.49
2023-03-25T17:38:41.837Z,10.35
2023-03-25T17:40:21.831Z,10.32
2023-03-25T17:42:04.473Z,10.33
2023-03-25T17:43:51.043Z,10.32
2023-03-25T17:45:25.665Z,10.29
2023-03-25T17:46:57.326Z,10.23
2023-03-25T17:48:29.368Z,10.28
2023-03-25T17:50:13.237Z,10.33
2023-03-25T17:51:46.506Z,10.29
2023-03-25T17:53:19.016Z,10.26
2023-03-25T17:54:51.499Z,10.11
2023-03-25T17:56:28.689Z,10.14
2023-03-25T17:58:00.518Z,10.13
2023-03-25T17:59:32.229Z,10.25
2023-03-25T18:01:04.704Z,10.20
2023-03-25T18:02:36.358Z,10.29
2023-03-25T18:04:09.525Z,10.29
2023-03-25T18:05:41.240Z,10.31
2023-03-25T18:07:12.853Z,10.31
2023-03-25T18:08:44.489Z,10.36
2023-03-25T18:10:19.353Z,10.31
2023-03-25T18:11:56.242Z,10.24
2023-03-25T18:13:28.055Z,9.97
2023-03-25T18:14:59.652Z,9.83
2023-03-25T18:16:31.346Z,9.69
2023-03-25T18:18:06.927Z,9.57
2023-03-25T18:19:38.727Z,9.45
2023-03-25T18:21:12.809Z,9.43
2023-03-25T18:22:44.718Z,9.26
2023-03-25T18:24:16.433Z,9.25
2023-03-25T18:25:48.659Z,9.22
2023-03-25T18:27:23.766Z,9.25
2023-03-25T18:29:02.111Z,9.28
2023-03-25T18:30:38.402Z,9.28
2023-03-25T18:32:10.012Z,9.27
2023-03-25T18:33:43.180Z,9.24
2023-03-25T18:35:15.019Z,9.25
2023-03-25T18:36:46.910Z,9.14
2023-03-25T18:38:26.317Z,9.19
2023-03-25T18:39:58.096Z,9.16
2023-03-25T18:41:29.770Z,9.13
2023-03-25T18:43:01.463Z,9.23
2023-03-25T18:44:33.153Z,9.10
2023-03-25T18:46:05.010Z,9.01
2023-03-25T18:47:36.778Z,8.87
2023-03-25T18:49:19.747Z,8.70
2023-03-25T18:50:56.472Z,8.63
2023-03-25T18:52:28.066Z,8.56
2023-03-25T18:53:59.692Z,8.53
2023-03-25T18:55:33.006Z,8.49
2023-03-25T18:57:04.819Z,8.47
2023-03-25T18:58:36.878Z,8.41
2023-03-25T19:00:15.205Z,8.36
2023-03-25T19:01:47.472Z,8.39
2023-03-25T19:03:21.311Z,8.35
2023-03-25T19:05:00.693Z,8.36
2023-03-25T19:06:33.247Z,8.34
2023-03-25T19:08:07.647Z,8.47
2023-03-25T19:09:39.695Z,8.46
2023-03-25T19:11:20.700Z,8.38
2023-03-25T19:12:53.197Z,8.46
2023-03-25T19:14:24.795Z,8.40
2023-03-25T19:15:56.423Z,8.39
2023-03-25T19:17:28.184Z,8.37
2023-03-25T19:19:00.388Z,8.39
2023-03-25T19:20:36.175Z,8.43
2023-03-25T19:22:09.877Z,8.52
2023-03-25T19:23:42.916Z,8.40
2023-03-25T19:25:15.619Z,8.44
2023-03-25T19:26:48.713Z,8.40
2023-03-25T19:28:22.523Z,8.40
2023-03-25T19:29:54.478Z,8.40
2023-03-25T19:31:26.625Z,8.45
2023-03-25T19:35:05.462Z,8.52
2023-03-25T19:36:37.110Z,8.53
2023-03-25T19:38:09.073Z,8.53
2023-03-25T19:39:42.674Z,8.54
2023-03-25T19:41:16.268Z,8.52
2023-03-25T19:42:49.210Z,8.48
2023-03-25T19:44:20.915Z,8.35
2023-03-25T19:45:56.224Z,8.26
2023-03-25T19:47:27.947Z,8.21
2023-03-25T19:48:59.700Z,8.31
2023-03-25T19:50:33.252Z,8.17
2023-03-25T19:52:05.020Z,8.30
2023-03-25T19:53:36.788Z,8.24
2023-03-25T19:55:10.147Z,8.26
2023-03-25T19:56:42.479Z,8.07
2023-03-25T19:58:14.303Z,7.99
2023-03-25T19:59:46.492Z,7.97
2023-03-25T20:01:18.275Z,7.95
2023-03-25T20:02:52.142Z,7.94
2023-03-25T20:04:23.802Z,8.03
2023-03-25T20:06:01.112Z,8.15
2023-03-25T20:07:32.844Z,8.06
2023-03-25T20:09:05.538Z,8.12
2023-03-25T20:10:39.293Z,8.09
2023-03-25T20:12:10.961Z,8.22
2023-03-25T20:13:42.592Z,8.27
2023-03-25T20:15:15.115Z,8.45
2023-03-25T20:16:46.845Z,8.36
2023-03-25T20:18:18.768Z,8.39
2023-03-25T20:19:50.666Z,8.47
2023-03-25T20:21:23.008Z,8.30
2023-03-25T20:22:55.621Z,8.22
2023-03-25T20:24:27.374Z,8.29
2023-03-25T20:25:59.093Z,8.09
2023-03-25T20:27:30.994Z,8.02
2023-03-25T20:29:02.689Z,8.07
2023-03-25T20:30:35.686Z,7.99
2023-03-25T20:32:07.595Z,7.93
2023-03-25T20:33:39.209Z,7.95
2023-03-25T20:35:13.327Z,8.01
2023-03-25T20:36:44.955Z,7.91
2023-03-25T20:38:16.874Z,7.79
2023-03-25T20:39:49.011Z,7.71
2023-03-25T20:41:20.782Z,7.77
2023-03-25T20:42:52.469Z,7.68
2023-03-25T20:44:24.095Z,7.59
2023-03-25T20:45:56.444Z,7.56
2023-03-25T20:47:28.601Z,7.63
2023-03-25T20:49:01.964Z,7.61
2023-03-25T20:50:34.230Z,7.56
2023-03-25T20:52:06.497Z,7.53
2023-03-25T20:53:40.351Z,7.54
2023-03-25T20:55:12.677Z,7.62
2023-03-25T20:56:46.428Z,7.66
2023-03-25T20:58:18.035Z,7.73
2023-03-25T20:59:52.752Z,7.72
2023-03-25T21:01:24.470Z,7.77
2023-03-25T21:02:57.827Z,7.78
2023-03-25T21:04:29.666Z,7.89
2023-03-25T21:06:07.392Z,7.98
2023-03-25T21:07:42.302Z,7.98
2023-03-25T21:09:14.439Z,7.83
2023-03-25T21:10:47.713Z,7.70
2023-03-25T21:12:20.669Z,7.64
2023-03-25T21:13:56.406Z,7.71
2023-03-25T21:15:28.663Z,7.82
2023-03-25T21:17:00.414Z,7.76